MDSDTNCM

Guest
Details From MDSD - Las Americas Intl
To TNCM - St Maarten - Princess Juliana Intl
Flight Number -
Tags decoded
Created
Modified
Stats Distance 378 nm / 699 km
Max Altitude 0 ft / 0 m
Waypoints 5
Social Downloads 1
Likes 0
Share VATSIM

Download

Looking for another format? Having issues loading an existing format? Contact us
Advertisement - Login to hide

Notes

Requested: MDSD PIVAR BQN GOUDA TNCM

Route

MDSD PIVAR BQN GOUDA TNCM

ID Type Via Altitude Latitude Longitude Leg Dist Tot Dist Heading (true) Name
O MDSD APT - 0 ft / 0 m 18.42966˚ -69.66893˚ - 0 nm - Las Americas Intl
PIVAR FIX - 0 ft / 0 m 18.44778˚ -69.26250˚ 23 nm 23 nm 87° / 87° -
BQN VOR - 0 ft / 0 m 18.49800˚ -67.10836˚ 122 nm 145 nm 88° / 89° BORINQUEN VORTAC
GOUDA FIX - 0 ft / 0 m 17.93402˚ -63.66667˚ 199 nm 345 nm 99° / 100° -
O TNCM APT - 0 ft / 0 m 18.04089˚ -63.10897˚ 32 nm 377 nm 79° / 79° St Maarten - Princess Juliana Intl

Altitude Profile

Advertisement - Login to hide

Weather


0- 5 10 15 20 25 30 35+ Temperature / ° C

Clouds and Precipitation
Forecast for 2017-12-13 06:00 UTC. Updated 7 minutes ago

Ground ~20,000 ft ~40,000 ft Winds

MDSD

Details ICAO MDSD (SDQ)
Name Las Americas Intl
Region Dominican Republic
Timezone America/Santo_Domingo (UTC-4.0)
Stats Elevation 59 ft / 18 m (AMSL)
Location 18.429662° -69.668925°
Runways 1
Magnetic Variation 11.536° W

METAR

MDSD 130100Z 19004KT 9999 FEW018 25/23 Q1013 NOSIG

Decode

TAF

Not found

Departure Runways

ID Width Length Bearing (true) Bearing (mag) Surface Threshold Offset Overrun Length
17 200 ft / 61 m 11,051 ft / 3,368 m 160.78° 172.32° Asphalt 0 ft / 0 m 0 ft / 0 m
35 200 ft / 61 m 11,051 ft / 3,368 m 340.79° 352.33° Asphalt 0 ft / 0 m 0 ft / 0 m

TNCM

Details ICAO TNCM (SXM)
Name St Maarten - Princess Juliana Intl
Region Caribbean Netherlands, Aruba, Curaçao, Sint Maarten
Timezone Unknown (UTC+0.0)
Stats Elevation 12 ft / 4 m (AMSL)
Location 18.040889° -63.108974°
Runways 1
Magnetic Variation 14.325° W

METAR

TNCM 130100Z 09004KT 060V120 CAVOK 26/21 Q1015 A2997

Decode

TAF

TAF TNCM 122320Z 1300/1324 13007KT P6SM FEW020 FM131500 15008KT P6SM SCT030

Decode

Destination Runways

ID Width Length Bearing (true) Bearing (mag) Surface Threshold Offset Overrun Length
10 148 ft / 45 m 7,464 ft / 2,275 m 81.43° 95.75° Asphalt 0 ft / 0 m 151 ft / 46 m
28 148 ft / 45 m 7,464 ft / 2,275 m 261.44° 275.76° Asphalt 397 ft / 121 m 0 ft / 0 m

Popular Alternatives